createdAt,value
2023-02-11T00:02:12.105Z,1.02
2023-02-11T00:04:42.605Z,1.00
2023-02-11T00:07:13.568Z,1.02
2023-02-11T00:09:43.962Z,0.90
2023-02-11T00:12:14.537Z,1.15
2023-02-11T00:14:44.889Z,1.00
2023-02-11T00:17:15.232Z,1.20
2023-02-11T00:19:46.076Z,1.27
2023-02-11T00:22:16.325Z,1.23
2023-02-11T00:24:46.769Z,0.98
2023-02-11T00:27:17.284Z,1.10
2023-02-11T00:29:47.610Z,1.40
2023-02-11T00:32:17.945Z,1.98
2023-02-11T00:34:48.149Z,1.30
2023-02-11T00:37:20.169Z,1.30
2023-02-11T00:39:52.255Z,1.30
2023-02-11T00:42:24.918Z,1.35
2023-02-11T00:44:55.639Z,1.17
2023-02-11T00:47:35.440Z,1.13
2023-02-11T00:50:19.598Z,1.10
2023-02-11T00:52:51.476Z,1.20
2023-02-11T00:55:24.527Z,1.15
2023-02-11T00:57:55.207Z,1.20
2023-02-11T01:00:26.037Z,1.63
2023-02-11T01:02:56.857Z,1.15
2023-02-11T01:05:27.205Z,1.23
2023-02-11T01:07:57.704Z,0.70
2023-02-11T01:10:28.349Z,1.23
2023-02-11T01:12:58.632Z,1.15
2023-02-11T01:15:29.297Z,1.00
2023-02-11T01:18:00.221Z,0.80
2023-02-11T01:20:31.429Z,1.30
2023-02-11T01:23:02.212Z,1.10
2023-02-11T01:25:33.002Z,1.00
2023-02-11T01:28:03.360Z,1.15
2023-02-11T01:30:34.117Z,1.15
2023-02-11T01:33:04.787Z,1.23
2023-02-11T01:35:35.575Z,0.90
2023-02-11T01:38:08.170Z,0.85
2023-02-11T01:40:38.513Z,0.85
2023-02-11T01:43:09.351Z,0.73
2023-02-11T01:45:52.366Z,0.90
2023-02-11T01:48:35.040Z,0.90
2023-02-11T01:51:18.675Z,0.65
2023-02-11T01:54:09.024Z,0.77
2023-02-11T01:57:03.088Z,0.90
2023-02-11T02:00:30.655Z,1.10
2023-02-11T02:03:22.250Z,0.93
2023-02-11T02:06:03.296Z,0.70
2023-02-11T02:08:59.918Z,0.85
2023-02-11T02:11:32.625Z,0.80
2023-02-11T02:14:03.357Z,0.90
2023-02-11T02:16:38.517Z,0.90
2023-02-11T02:19:26.898Z,0.70
2023-02-11T02:22:20.705Z,0.60
2023-02-11T02:25:12.669Z,0.50
2023-02-11T02:28:02.140Z,0.80
2023-02-11T02:30:32.848Z,0.80
2023-02-11T02:33:25.958Z,0.77
2023-02-11T02:36:14.390Z,0.68
2023-02-11T02:39:11.632Z,0.63
2023-02-11T02:41:43.843Z,1.38
2023-02-11T02:44:15.082Z,0.95
2023-02-11T02:46:45.876Z,1.17
2023-02-11T02:49:19.358Z,0.70
2023-02-11T02:52:12.952Z,0.80
2023-02-11T02:54:49.445Z,0.88
2023-02-11T02:57:54.059Z,0.68
2023-02-11T03:00:47.547Z,0.70
2023-02-11T03:03:31.983Z,1.48
2023-02-11T03:06:13.286Z,0.98
2023-02-11T03:08:53.740Z,1.13
2023-02-11T03:11:26.047Z,0.50
2023-02-11T03:13:59.684Z,0.68
2023-02-11T03:16:32.226Z,0.80
2023-02-11T03:19:12.149Z,0.85
2023-02-11T03:21:45.698Z,1.40
2023-02-11T03:24:48.894Z,0.60
2023-02-11T03:27:24.445Z,0.65
2023-02-11T03:30:20.894Z,0.70
2023-02-11T03:33:35.673Z,2.05
2023-02-11T03:36:11.721Z,1.02
2023-02-11T03:41:18.242Z,0.90
2023-02-11T03:43:54.908Z,0.90
2023-02-11T03:46:34.354Z,0.70
2023-02-11T03:49:09.793Z,1.33
2023-02-11T03:51:41.426Z,0.50
2023-02-11T03:54:19.222Z,1.50
2023-02-11T03:56:57.250Z,0.73
2023-02-11T03:59:28.077Z,0.75
2023-02-11T04:01:59.490Z,0.70
2023-02-11T04:04:29.788Z,0.93
2023-02-11T04:07:00.811Z,0.90
2023-02-11T04:09:31.037Z,0.60
2023-02-11T04:12:03.705Z,0.80
2023-02-11T04:14:39.137Z,0.77
2023-02-11T04:17:09.954Z,0.50
2023-02-11T04:19:40.840Z,0.90
2023-02-11T04:22:11.135Z,1.00
2023-02-11T04:24:41.471Z,0.98
2023-02-11T04:27:12.292Z,0.80
2023-02-11T04:29:42.603Z,0.90
2023-02-11T04:32:14.304Z,0.98
2023-02-11T04:34:44.960Z,1.25
2023-02-11T04:37:15.598Z,0.77
2023-02-11T04:39:46.258Z,1.05
2023-02-11T04:42:17.277Z,1.00
2023-02-11T04:44:49.350Z,0.98
2023-02-11T04:47:20.061Z,0.57
2023-02-11T04:49:50.756Z,1.45
2023-02-11T04:52:21.580Z,1.08
2023-02-11T04:54:52.720Z,0.70
2023-02-11T04:57:30.658Z,0.50
2023-02-11T05:00:01.276Z,0.70
2023-02-11T05:02:31.981Z,0.70
2023-02-11T05:05:02.234Z,0.70
2023-02-11T05:07:32.633Z,0.60
2023-02-11T05:10:02.966Z,0.63
2023-02-11T05:12:33.338Z,0.70
2023-02-11T05:15:03.686Z,1.20
2023-02-11T05:17:34.168Z,0.77
2023-02-11T05:20:04.577Z,0.93
2023-02-11T05:22:35.223Z,0.60
2023-02-11T05:25:06.095Z,0.73
2023-02-11T05:27:36.896Z,0.70
2023-02-11T05:30:09.063Z,0.95
2023-02-11T05:32:40.951Z,1.00
2023-02-11T05:35:11.997Z,0.70
2023-02-11T05:37:42.554Z,0.90
2023-02-11T05:40:13.460Z,0.85
2023-02-11T05:42:44.440Z,1.15
2023-02-11T05:45:14.683Z,0.43
2023-02-11T05:47:44.965Z,0.70
2023-02-11T05:50:15.286Z,0.57
2023-02-11T05:52:45.544Z,0.90
2023-02-11T05:55:16.412Z,0.70
2023-02-11T05:57:46.700Z,1.17
2023-02-11T06:00:18.033Z,0.75
2023-02-11T06:02:48.740Z,0.77
2023-02-11T06:05:19.612Z,1.35
2023-02-11T06:07:51.086Z,0.93
2023-02-11T06:10:22.762Z,0.60
2023-02-11T06:12:54.251Z,0.90
2023-02-11T06:15:25.355Z,0.85
2023-02-11T06:17:57.363Z,0.70
2023-02-11T06:20:28.080Z,0.70
2023-02-11T06:22:58.851Z,0.88
2023-02-11T06:25:31.588Z,0.50
2023-02-11T06:28:03.322Z,0.90
2023-02-11T06:30:35.507Z,0.60
2023-02-11T06:33:06.777Z,0.55
2023-02-11T06:35:37.486Z,0.70
2023-02-11T06:38:12.586Z,0.80
2023-02-11T06:40:43.960Z,0.75
2023-02-11T06:43:15.522Z,0.85
2023-02-11T06:45:46.262Z,0.68
2023-02-11T06:48:17.709Z,0.70
2023-02-11T06:50:48.405Z,0.85
2023-02-11T06:53:20.049Z,1.00
2023-02-11T06:55:50.861Z,0.85
2023-02-11T06:58:21.828Z,0.70
2023-02-11T07:00:53.537Z,0.80
2023-02-11T07:03:24.505Z,1.20
2023-02-11T07:05:55.526Z,1.10
2023-02-11T07:08:33.687Z,0.70
2023-02-11T07:11:04.976Z,1.10
2023-02-11T07:13:37.535Z,0.85
2023-02-11T07:16:11.482Z,0.80
2023-02-11T07:18:42.638Z,0.98
2023-02-11T07:21:15.766Z,0.73
2023-02-11T07:23:46.957Z,0.73
2023-02-11T07:26:21.813Z,0.80
2023-02-11T07:28:53.525Z,0.82
2023-02-11T07:31:31.566Z,0.70
2023-02-11T07:34:04.964Z,1.00
2023-02-11T07:36:36.583Z,0.93
2023-02-11T07:39:07.856Z,0.70
2023-02-11T07:41:40.555Z,1.00
2023-02-11T07:44:12.445Z,0.90
2023-02-11T07:46:49.035Z,0.80
2023-02-11T07:49:20.022Z,0.63
2023-02-11T07:51:51.520Z,0.75
2023-02-11T07:54:22.341Z,0.85
2023-02-11T07:56:54.260Z,0.70
2023-02-11T07:59:26.971Z,0.65
2023-02-11T08:01:58.715Z,0.60
2023-02-11T08:04:29.401Z,0.65
2023-02-11T08:07:01.865Z,0.60
2023-02-11T08:09:34.632Z,0.60
2023-02-11T08:12:07.722Z,0.68
2023-02-11T08:14:38.812Z,0.63
2023-02-11T08:17:10.820Z,0.90
2023-02-11T08:19:42.551Z,1.00
2023-02-11T08:22:13.674Z,1.13
2023-02-11T08:24:45.425Z,0.70
2023-02-11T08:27:19.239Z,0.70
2023-02-11T08:29:51.622Z,0.65
2023-02-11T08:32:23.229Z,0.60
2023-02-11T08:34:59.025Z,0.60
2023-02-11T08:37:32.057Z,0.93
2023-02-11T08:40:03.480Z,0.88
2023-02-11T08:42:35.309Z,0.85
2023-02-11T08:45:07.807Z,0.60
2023-02-11T08:47:40.059Z,1.00
2023-02-11T08:50:10.667Z,0.73
2023-02-11T08:52:41.806Z,0.70
2023-02-11T08:55:14.150Z,0.55
2023-02-11T08:57:46.034Z,1.58
2023-02-11T09:00:17.688Z,0.65
2023-02-11T09:02:49.096Z,0.50
2023-02-11T09:05:21.166Z,0.85
2023-02-11T09:07:53.963Z,0.90
2023-02-11T09:10:25.824Z,1.10
2023-02-11T09:12:56.704Z,0.90
2023-02-11T09:15:27.412Z,0.57
2023-02-11T09:17:59.927Z,0.68
2023-02-11T09:20:32.011Z,0.60
2023-02-11T09:23:04.662Z,1.20
2023-02-11T09:25:35.340Z,1.00
2023-02-11T09:28:06.050Z,0.98
2023-02-11T09:30:36.823Z,1.33
2023-02-11T09:33:09.106Z,1.77
2023-02-11T09:35:40.156Z,1.35
2023-02-11T09:38:11.436Z,1.38
2023-02-11T09:40:46.873Z,1.02
2023-02-11T09:43:24.361Z,1.08
2023-02-11T09:45:58.349Z,1.17
2023-02-11T09:48:28.965Z,1.10
2023-02-11T09:51:02.658Z,1.23
2023-02-11T09:53:39.704Z,1.50
2023-02-11T09:56:17.734Z,0.90
2023-02-11T09:58:48.949Z,1.23
2023-02-11T10:01:42.608Z,0.98
2023-02-11T10:04:43.498Z,1.10
2023-02-11T10:07:48.131Z,1.27
2023-02-11T10:10:47.982Z,1.60
2023-02-11T10:13:27.447Z,1.30
2023-02-11T10:16:19.383Z,0.95
2023-02-11T10:18:58.378Z,1.20
2023-02-11T10:21:57.646Z,1.10
2023-02-11T10:24:30.767Z,1.00
2023-02-11T10:27:01.353Z,1.20
2023-02-11T10:29:45.417Z,1.33
2023-02-11T10:32:37.547Z,1.48
2023-02-11T10:35:23.776Z,1.48
2023-02-11T10:37:54.732Z,1.00
2023-02-11T10:40:29.060Z,1.13
2023-02-11T10:43:04.216Z,1.10
2023-02-11T10:46:01.972Z,0.98
2023-02-11T10:48:56.360Z,1.85
2023-02-11T10:51:30.723Z,1.40
2023-02-11T10:54:07.876Z,0.93
2023-02-11T10:56:42.731Z,1.08
2023-02-11T10:59:21.585Z,2.10
2023-02-11T11:02:00.221Z,1.25
2023-02-11T11:04:35.804Z,1.08
2023-02-11T11:07:27.053Z,2.07
2023-02-11T11:10:01.302Z,1.55
2023-02-11T11:12:32.347Z,1.25
2023-02-11T11:15:14.931Z,1.33
2023-02-11T11:17:46.093Z,1.40
2023-02-11T11:20:48.256Z,1.70
2023-02-11T11:23:26.714Z,3.10
2023-02-11T11:26:18.549Z,2.10
2023-02-11T11:29:00.804Z,1.42
2023-02-11T11:31:55.469Z,1.38
2023-02-11T11:34:30.370Z,2.38
2023-02-11T11:37:02.892Z,2.42
2023-02-11T11:39:36.853Z,1.95
2023-02-11T11:42:26.746Z,2.13
2023-02-11T11:45:25.351Z,1.48
2023-02-11T11:48:25.384Z,2.28
2023-02-11T11:51:00.157Z,1.52
2023-02-11T11:53:44.322Z,1.92
2023-02-11T11:56:25.166Z,1.90
2023-02-11T11:58:56.558Z,1.83
2023-02-11T12:01:47.167Z,1.30
2023-02-11T12:04:50.795Z,2.20
2023-02-11T12:07:54.463Z,1.67
2023-02-11T12:10:51.679Z,2.28
2023-02-11T12:16:29.376Z,1.67
2023-02-11T12:19:18.277Z,1.83
2023-02-11T12:21:49.090Z,1.42
2023-02-11T12:24:50.524Z,1.52
2023-02-11T12:27:24.837Z,2.13
2023-02-11T12:30:08.644Z,1.67
2023-02-11T12:32:57.414Z,1.45
2023-02-11T12:35:31.811Z,2.10
2023-02-11T12:38:29.249Z,1.60
2023-02-11T12:41:45.118Z,1.48
2023-02-11T12:44:32.202Z,1.52
2023-02-11T12:47:15.381Z,1.98
2023-02-11T12:50:15.274Z,1.98
2023-02-11T12:53:06.048Z,1.50
2023-02-11T12:55:46.817Z,1.42
2023-02-11T12:58:35.584Z,1.73
2023-02-11T13:01:29.935Z,1.30
2023-02-11T13:04:14.643Z,1.45
2023-02-11T13:06:54.811Z,1.65
2023-02-11T13:09:34.482Z,1.77
2023-02-11T13:12:26.254Z,1.88
2023-02-11T13:15:01.487Z,1.42
2023-02-11T13:17:51.141Z,1.42
2023-02-11T13:20:52.315Z,1.50
2023-02-11T13:23:42.037Z,2.08
2023-02-11T13:26:35.802Z,1.17
2023-02-11T13:29:21.727Z,1.63
2023-02-11T13:32:16.993Z,1.83
2023-02-11T13:34:48.591Z,1.15
2023-02-11T13:37:29.029Z,1.23
2023-02-11T13:40:10.662Z,1.48
2023-02-11T13:42:57.771Z,1.20
2023-02-11T13:48:35.356Z,1.08
2023-02-11T13:51:13.617Z,1.30
2023-02-11T13:53:50.737Z,1.15
2023-02-11T13:56:37.883Z,0.95
2023-02-11T14:02:25.463Z,0.77
2023-02-11T14:05:24.759Z,0.90
2023-02-11T14:08:42.909Z,1.10
2023-02-11T14:11:29.612Z,1.63
2023-02-11T14:14:26.597Z,1.33
2023-02-11T14:17:03.554Z,1.77
2023-02-11T14:19:48.638Z,1.98
2023-02-11T14:22:26.910Z,1.40
2023-02-11T14:25:06.422Z,1.10
2023-02-11T14:28:00.340Z,1.50
2023-02-11T14:30:41.285Z,1.48
2023-02-11T14:33:37.034Z,1.45
2023-02-11T14:36:38.953Z,1.60
2023-02-11T14:39:24.171Z,1.10
2023-02-11T14:41:56.557Z,1.73
2023-02-11T14:44:34.102Z,1.23
2023-02-11T14:47:05.897Z,1.25
2023-02-11T14:49:42.671Z,1.73
2023-02-11T14:52:29.604Z,1.83
2023-02-11T14:55:24.912Z,1.50
2023-02-11T14:58:10.140Z,1.38
2023-02-11T15:00:50.623Z,1.30
2023-02-11T15:03:32.918Z,1.08
2023-02-11T15:06:06.167Z,0.98
2023-02-11T15:08:40.612Z,1.17
2023-02-11T15:11:18.544Z,1.52
2023-02-11T15:13:50.358Z,1.40
2023-02-11T15:16:26.023Z,1.98
2023-02-11T15:19:05.342Z,1.42
2023-02-11T15:21:39.022Z,1.85
2023-02-11T15:24:26.572Z,1.17
2023-02-11T15:27:03.594Z,1.58
2023-02-11T15:29:51.823Z,1.80
2023-02-11T15:32:24.624Z,2.22
2023-02-11T15:34:58.816Z,1.35
2023-02-11T15:37:34.160Z,1.30
2023-02-11T15:40:14.973Z,1.33
2023-02-11T15:43:07.998Z,1.65
2023-02-11T15:45:59.677Z,1.33
2023-02-11T15:48:51.634Z,1.15
2023-02-11T15:51:35.396Z,1.42
2023-02-11T15:54:10.400Z,1.45
2023-02-11T15:56:48.160Z,1.58
2023-02-11T15:59:40.356Z,1.40
2023-02-11T16:02:12.710Z,1.27
2023-02-11T16:04:51.007Z,1.40
2023-02-11T16:07:43.717Z,1.33
2023-02-11T16:10:37.133Z,1.65
2023-02-11T16:13:11.853Z,1.63
2023-02-11T16:16:04.875Z,1.77
2023-02-11T16:18:41.521Z,2.72
2023-02-11T16:21:24.429Z,1.55
2023-02-11T16:24:00.941Z,1.15
2023-02-11T16:26:45.419Z,1.98
2023-02-11T16:29:29.330Z,1.80
2023-02-11T16:32:16.763Z,1.58
2023-02-11T16:34:49.808Z,2.22
2023-02-11T16:37:21.037Z,1.35
2023-02-11T16:39:51.856Z,1.65
2023-02-11T16:42:24.672Z,1.55
2023-02-11T16:44:55.663Z,1.55
2023-02-11T16:47:36.909Z,1.45
2023-02-11T16:50:10.576Z,1.15
2023-02-11T16:52:41.518Z,1.50
2023-02-11T16:55:15.310Z,2.95
2023-02-11T16:57:46.037Z,1.58
2023-02-11T17:00:19.972Z,2.33
2023-02-11T17:02:50.809Z,1.65
2023-02-11T17:05:26.806Z,2.60
2023-02-11T17:07:57.081Z,1.60
2023-02-11T17:10:28.138Z,1.63
2023-02-11T17:12:58.479Z,1.85
2023-02-11T17:15:29.240Z,2.03
2023-02-11T17:17:59.559Z,1.77
2023-02-11T17:20:31.302Z,1.48
2023-02-11T17:23:01.628Z,2.20
2023-02-11T17:25:32.005Z,2.00
2023-02-11T17:28:02.391Z,2.35
2023-02-11T17:30:32.904Z,1.40
2023-02-11T17:33:04.062Z,1.63
2023-02-11T17:35:34.301Z,1.40
2023-02-11T17:38:05.143Z,1.60
2023-02-11T17:40:36.167Z,1.73
2023-02-11T17:43:08.561Z,2.15
2023-02-11T17:45:44.910Z,1.42
2023-02-11T17:48:16.407Z,1.05
2023-02-11T17:50:47.064Z,1.98
2023-02-11T17:53:17.914Z,1.30
2023-02-11T17:55:49.006Z,1.58
2023-02-11T17:58:19.910Z,1.75
2023-02-11T18:00:51.866Z,2.38
2023-02-11T18:03:22.617Z,1.90
2023-02-11T18:05:54.542Z,2.25
2023-02-11T18:08:36.148Z,1.70
2023-02-11T18:11:12.432Z,1.88
2023-02-11T18:13:45.464Z,2.47
2023-02-11T18:16:19.344Z,1.88
2023-02-11T18:18:51.811Z,1.70
2023-02-11T18:21:25.651Z,1.60
2023-02-11T18:23:56.544Z,1.83
2023-02-11T18:26:32.010Z,1.98
2023-02-11T18:29:02.806Z,2.00
2023-02-11T18:31:34.932Z,1.83
2023-02-11T18:34:09.411Z,2.10
2023-02-11T18:36:40.573Z,2.35
2023-02-11T18:39:11.541Z,1.92
2023-02-11T18:41:46.565Z,2.17
2023-02-11T18:44:22.683Z,1.70
2023-02-11T18:46:53.691Z,1.58
2023-02-11T18:49:24.736Z,2.17
2023-02-11T18:51:57.550Z,1.75
2023-02-11T18:54:29.554Z,1.90
2023-02-11T18:57:00.293Z,2.10
2023-02-11T18:59:31.147Z,1.92
2023-02-11T19:02:01.858Z,1.90
2023-02-11T19:04:32.669Z,1.67
2023-02-11T19:07:05.780Z,2.72
2023-02-11T19:09:36.738Z,2.55
2023-02-11T19:12:09.198Z,2.08
2023-02-11T19:14:41.160Z,1.95
2023-02-11T19:17:14.485Z,3.03
2023-02-11T19:19:45.702Z,2.67
2023-02-11T19:22:17.559Z,2.13
2023-02-11T19:24:51.950Z,2.55
2023-02-11T19:27:22.965Z,2.55
2023-02-11T19:29:53.989Z,2.15
2023-02-11T19:32:25.732Z,2.28
2023-02-11T19:34:56.392Z,3.53
2023-02-11T19:37:28.219Z,1.88
2023-02-11T19:39:59.086Z,2.53
2023-02-11T19:42:31.238Z,2.10
2023-02-11T19:45:01.879Z,2.03
2023-02-11T19:47:34.298Z,2.95
2023-02-11T19:50:06.306Z,2.03
2023-02-11T19:52:37.002Z,2.35
2023-02-11T19:55:08.032Z,2.97
2023-02-11T19:57:41.239Z,2.03
2023-02-11T20:00:13.326Z,2.22
2023-02-11T20:02:44.346Z,2.20
2023-02-11T20:05:15.047Z,2.03
2023-02-11T20:07:45.785Z,2.92
2023-02-11T20:10:16.529Z,2.47
2023-02-11T20:12:47.254Z,1.92
2023-02-11T20:15:18.035Z,2.20
2023-02-11T20:17:50.320Z,2.33
2023-02-11T20:20:21.671Z,2.83
2023-02-11T20:22:53.801Z,2.30
2023-02-11T20:25:24.760Z,2.50
2023-02-11T20:27:55.667Z,1.90
2023-02-11T20:30:27.386Z,2.65
2023-02-11T20:32:59.232Z,2.30
2023-02-11T20:35:30.087Z,2.22
2023-02-11T20:38:02.568Z,2.35
2023-02-11T20:40:34.124Z,2.25
2023-02-11T20:43:04.770Z,2.13
2023-02-11T20:45:38.700Z,2.28
2023-02-11T20:48:09.501Z,2.22
2023-02-11T20:50:40.246Z,2.15
2023-02-11T20:53:12.350Z,3.00
2023-02-11T20:55:43.088Z,2.35
2023-02-11T20:58:13.901Z,2.30
2023-02-11T21:00:44.552Z,2.10
2023-02-11T21:03:15.293Z,2.20
2023-02-11T21:05:47.198Z,2.30
2023-02-11T21:11:01.276Z,2.40
2023-02-11T21:13:32.842Z,2.72
2023-02-11T21:16:04.483Z,2.55
2023-02-11T21:18:36.310Z,2.92
2023-02-11T21:21:07.798Z,2.55
2023-02-11T21:23:39.477Z,3.30
2023-02-11T21:26:11.062Z,2.55
2023-02-11T21:28:42.280Z,2.60
2023-02-11T21:31:20.285Z,2.67
2023-02-11T21:33:53.493Z,2.65
2023-02-11T21:36:26.908Z,3.40
2023-02-11T21:38:58.207Z,3.08
2023-02-11T21:41:29.471Z,2.78
2023-02-11T21:44:01.548Z,3.22
2023-02-11T21:46:33.913Z,3.58
2023-02-11T21:49:04.360Z,2.63
2023-02-11T21:51:34.709Z,2.47
2023-02-11T21:54:06.461Z,2.42
2023-02-11T21:56:37.605Z,2.92
2023-02-11T21:59:08.439Z,2.95
2023-02-11T22:01:39.148Z,3.47
2023-02-11T22:04:10.052Z,3.08
2023-02-11T22:06:42.482Z,3.03
2023-02-11T22:09:13.482Z,3.13
2023-02-11T22:11:44.245Z,2.80
2023-02-11T22:14:15.234Z,2.85
2023-02-11T22:16:49.143Z,2.88
2023-02-11T22:19:21.025Z,2.67
2023-02-11T22:21:53.180Z,3.17
2023-02-11T22:24:24.114Z,2.95
2023-02-11T22:26:55.124Z,2.88
2023-02-11T22:29:25.785Z,3.17
2023-02-11T22:31:57.419Z,2.70
2023-02-11T22:34:28.862Z,3.28
2023-02-11T22:37:00.414Z,2.90
2023-02-11T22:39:31.728Z,2.58
2023-02-11T22:42:02.683Z,2.38
2023-02-11T22:44:33.409Z,3.83
2023-02-11T22:47:04.150Z,2.45
2023-02-11T22:49:37.376Z,2.38
2023-02-11T22:52:08.347Z,3.72
2023-02-11T22:54:41.330Z,3.03
2023-02-11T22:57:12.058Z,2.65
2023-02-11T22:59:42.729Z,2.80
2023-02-11T23:02:14.408Z,2.78
2023-02-11T23:04:45.249Z,2.85
2023-02-11T23:07:17.852Z,2.83
2023-02-11T23:09:49.801Z,2.67
2023-02-11T23:12:20.805Z,2.97
2023-02-11T23:14:53.162Z,3.00
2023-02-11T23:17:26.583Z,2.47
2023-02-11T23:19:58.230Z,2.17
2023-02-11T23:22:30.203Z,2.63
2023-02-11T23:25:01.148Z,2.97
2023-02-11T23:27:32.163Z,2.88
2023-02-11T23:30:04.405Z,2.58
2023-02-11T23:32:35.563Z,2.38
2023-02-11T23:35:05.917Z,2.50
2023-02-11T23:37:36.666Z,2.47
2023-02-11T23:40:07.564Z,2.70
2023-02-11T23:42:38.466Z,3.00
2023-02-11T23:45:10.332Z,3.00
2023-02-11T23:47:43.827Z,2.65
2023-02-11T23:50:15.168Z,3.22
2023-02-11T23:52:46.311Z,2.65
2023-02-11T23:55:17.052Z,2.20
2023-02-11T23:57:48.043Z,3.03
